createdAt,value
2016-04-28T00:00:32.309Z,16.46
2016-04-28T00:01:29.075Z,16.41
2016-04-28T00:02:32.188Z,16.46
2016-04-28T00:03:29.126Z,16.37
2016-04-28T00:04:32.367Z,16.4
2016-04-28T00:05:29.117Z,16.34
2016-04-28T00:06:28.963Z,16.39
2016-04-28T00:07:28.934Z,16.41
2016-04-28T00:08:28.875Z,16.5
2016-04-28T00:09:28.830Z,16.41
2016-04-28T00:10:31.710Z,16.5
2016-04-28T00:11:28.413Z,16.44
2016-04-28T00:12:28.666Z,16.41
2016-04-28T00:13:28.638Z,16.41
2016-04-28T00:14:28.594Z,16.43
2016-04-28T00:15:31.551Z,16.41
2016-04-28T00:16:28.505Z,16.36
2016-04-28T00:17:28.462Z,16.4
2016-04-28T00:18:28.386Z,16.37
2016-04-28T00:19:28.560Z,16.36
2016-04-28T00:20:28.312Z,16.41
2016-04-28T00:21:28.253Z,16.41
2016-04-28T00:22:28.209Z,16.4
2016-04-28T00:23:28.196Z,16.36
2016-04-28T00:24:28.120Z,16.36
2016-04-28T00:25:28.092Z,16.36
2016-04-28T00:26:27.720Z,16.37
2016-04-28T00:27:30.975Z,16.4
2016-04-28T00:28:27.944Z,16.37
2016-04-28T00:29:27.883Z,16.4
2016-04-28T00:30:27.840Z,16.4
2016-04-28T00:31:27.780Z,16.4
2016-04-28T00:32:27.736Z,16.34
2016-04-28T00:33:27.676Z,16.4
2016-04-28T00:34:27.632Z,16.34
2016-04-28T00:35:30.590Z,16.37
2016-04-28T00:36:30.577Z,16.36
2016-04-28T00:37:30.908Z,16.37
2016-04-28T00:38:27.502Z,16.4
2016-04-28T00:39:27.380Z,16.34
2016-04-28T00:40:27.351Z,16.31
2016-04-28T00:41:28.244Z,16.36
2016-04-28T00:42:27.246Z,16.39
2016-04-28T00:43:30.204Z,16.37
2016-04-28T00:44:27.159Z,16.32
2016-04-28T00:45:27.099Z,16.34
2016-04-28T00:46:27.054Z,16.41
2016-04-28T00:47:27.042Z,16.4
2016-04-28T00:48:26.967Z,16.39
2016-04-28T00:49:26.906Z,16.41
2016-04-28T00:50:29.847Z,16.36
2016-04-28T00:51:26.834Z,16.39
2016-04-28T00:52:26.821Z,16.39
2016-04-28T00:53:26.714Z,16.37
2016-04-28T00:54:26.670Z,16.37
2016-04-28T00:55:26.626Z,16.39
2016-04-28T00:56:28.659Z,16.36
2016-04-28T00:57:26.522Z,16.41
2016-04-28T00:58:26.478Z,16.41
2016-04-28T00:59:26.433Z,16.34
2016-04-28T01:00:26.374Z,16.34
2016-04-28T01:01:26.345Z,16.34
2016-04-28T01:02:29.285Z,16.39
2016-04-28T01:03:26.225Z,16.37
2016-04-28T01:04:26.197Z,16.34
2016-04-28T01:05:26.122Z,16.39
2016-04-28T01:06:26.093Z,16.39
2016-04-28T01:07:26.064Z,16.41
2016-04-28T01:08:26.066Z,16.31
2016-04-28T01:09:25.944Z,16.36
2016-04-28T01:10:28.916Z,16.41
2016-04-28T01:11:25.762Z,16.41
2016-04-28T01:12:25.827Z,16.39
2016-04-28T01:13:25.768Z,16.36
2016-04-28T01:14:31.945Z,16.39
2016-04-28T01:15:25.679Z,16.4
2016-04-28T01:16:25.073Z,16.46
2016-04-28T01:17:25.560Z,16.41
2016-04-28T01:18:25.516Z,16.4
2016-04-28T01:19:25.471Z,16.41
2016-04-28T01:20:25.428Z,16.46
2016-04-28T01:21:25.367Z,16.36
2016-04-28T01:22:28.323Z,16.41
2016-04-28T01:23:28.264Z,16.37
2016-04-28T01:24:28.266Z,16.41
2016-04-28T01:25:28.394Z,16.41
2016-04-28T01:26:25.662Z,16.39
2016-04-28T01:27:25.087Z,16.37
2016-04-28T01:28:28.074Z,16.37
2016-04-28T01:29:24.998Z,16.34
2016-04-28T01:30:24.986Z,16.36
2016-04-28T01:31:28.098Z,16.4
2016-04-28T01:32:24.850Z,16.39
2016-04-28T01:33:24.790Z,16.4
2016-04-28T01:34:25.074Z,16.37
2016-04-28T01:35:27.702Z,16.4
2016-04-28T01:36:31.064Z,16.41
2016-04-28T01:37:24.598Z,16.39
2016-04-28T01:38:24.555Z,16.32
2016-04-28T01:39:24.494Z,16.37
2016-04-28T01:40:24.778Z,16.34
2016-04-28T01:41:24.765Z,16.4
2016-04-28T01:42:27.362Z,16.43
2016-04-28T01:43:24.318Z,16.37
2016-04-28T01:44:24.258Z,16.4
2016-04-28T01:45:24.213Z,16.39
2016-04-28T01:46:24.700Z,16.36
2016-04-28T01:47:24.110Z,16.37
2016-04-28T01:48:27.253Z,16.41
2016-04-28T01:49:24.037Z,16.28
2016-04-28T01:50:23.961Z,16.34
2016-04-28T01:51:30.121Z,16.31
2016-04-28T01:52:27.092Z,16.29
2016-04-28T01:53:23.828Z,16.34
2016-04-28T01:54:23.770Z,16.34
2016-04-28T01:55:23.912Z,16.36
2016-04-28T01:56:25.306Z,16.36
2016-04-28T01:57:26.823Z,16.34
2016-04-28T01:58:23.576Z,16.29
2016-04-28T01:59:23.532Z,16.32
2016-04-28T02:00:23.489Z,16.34
2016-04-28T02:01:26.506Z,16.41
2016-04-28T02:02:23.399Z,16.36
2016-04-28T02:03:23.340Z,16.39
2016-04-28T02:04:23.280Z,16.4
2016-04-28T02:05:23.283Z,16.36
2016-04-28T02:06:23.207Z,16.31
2016-04-28T02:07:23.163Z,16.39
2016-04-28T02:08:23.103Z,16.36
2016-04-28T02:09:23.060Z,16.34
2016-04-28T02:10:23.046Z,16.34
2016-04-28T02:11:22.846Z,16.31
2016-04-28T02:12:22.911Z,16.32
2016-04-28T02:13:22.882Z,16.39
2016-04-28T02:14:22.838Z,16.32
2016-04-28T02:15:22.778Z,16.32
2016-04-28T02:16:22.719Z,16.28
2016-04-28T02:17:23.127Z,16.32
2016-04-28T02:18:25.646Z,16.29
2016-04-28T02:19:22.571Z,16.32
2016-04-28T02:20:22.526Z,16.28
2016-04-28T02:21:22.498Z,16.31
2016-04-28T02:22:22.437Z,16.39
2016-04-28T02:23:22.368Z,16.4
2016-04-28T02:24:22.324Z,16.32
2016-04-28T02:25:22.296Z,16.36
2016-04-28T02:26:25.220Z,16.34
2016-04-28T02:27:21.910Z,16.39
2016-04-28T02:28:22.131Z,16.34
2016-04-28T02:29:25.104Z,16.32
2016-04-28T02:30:25.028Z,16.34
2016-04-28T02:31:21.984Z,16.37
2016-04-28T02:32:21.970Z,16.34
2016-04-28T02:33:21.926Z,16.37
2016-04-28T02:34:21.851Z,16.32
2016-04-28T02:35:21.884Z,16.32
2016-04-28T02:36:21.763Z,16.41
2016-04-28T02:37:21.719Z,16.32
2016-04-28T02:38:24.722Z,16.36
2016-04-28T02:39:21.599Z,16.43
2016-04-28T02:40:21.569Z,16.36
2016-04-28T02:41:21.448Z,16.28
2016-04-28T02:42:21.467Z,16.32
2016-04-28T02:43:22.031Z,16.34
2016-04-28T02:44:27.362Z,16.32
2016-04-28T02:45:24.319Z,16.34
2016-04-28T02:46:21.289Z,16.41
2016-04-28T02:47:21.230Z,16.34
2016-04-28T02:48:21.185Z,16.32
2016-04-28T02:49:24.127Z,16.43
2016-04-28T02:50:21.082Z,16.32
2016-04-28T02:51:21.037Z,16.31
2016-04-28T02:52:20.977Z,16.26
2016-04-28T02:53:21.151Z,16.36
2016-04-28T02:54:21.046Z,16.37
2016-04-28T02:55:20.829Z,16.28
2016-04-28T02:56:21.379Z,16.31
2016-04-28T02:57:20.741Z,16.34
2016-04-28T02:58:23.696Z,16.32
2016-04-28T02:59:20.637Z,16.28
2016-04-28T03:00:20.623Z,16.28
2016-04-28T03:01:20.580Z,16.31
2016-04-28T03:02:20.489Z,16.37
2016-04-28T03:03:20.460Z,16.32
2016-04-28T03:04:20.400Z,16.36
2016-04-28T03:05:20.387Z,16.29
2016-04-28T03:06:20.375Z,16.32
2016-04-28T03:07:20.267Z,16.36
2016-04-28T03:08:20.208Z,16.34
2016-04-28T03:09:20.211Z,16.28
2016-04-28T03:10:20.136Z,16.32
2016-04-28T03:11:20.075Z,16.37
2016-04-28T03:12:26.250Z,16.32
2016-04-28T03:13:20.175Z,16.29
2016-04-28T03:14:19.927Z,16.37
2016-04-28T03:15:25.914Z,16.37
2016-04-28T03:16:22.839Z,16.28
2016-04-28T03:17:19.810Z,16.37
2016-04-28T03:18:19.750Z,16.28
2016-04-28T03:19:22.582Z,16.36
2016-04-28T03:20:19.630Z,16.32
2016-04-28T03:21:19.587Z,16.36
2016-04-28T03:22:19.761Z,16.37
2016-04-28T03:23:19.499Z,16.39
2016-04-28T03:24:19.438Z,16.28
2016-04-28T03:25:19.394Z,16.32
2016-04-28T03:26:19.366Z,16.28
2016-04-28T03:27:22.306Z,16.26
2016-04-28T03:28:19.449Z,16.31
2016-04-28T03:29:19.186Z,16.31
2016-04-28T03:30:22.143Z,16.28
2016-04-28T03:31:19.098Z,16.28
2016-04-28T03:32:25.070Z,16.28
2016-04-28T03:33:19.197Z,16.28
2016-04-28T03:34:22.168Z,16.29
2016-04-28T03:35:18.984Z,16.28
2016-04-28T03:36:18.861Z,16.29
2016-04-28T03:37:21.801Z,16.29
2016-04-28T03:38:18.773Z,16.29
2016-04-28T03:39:21.729Z,16.39
2016-04-28T03:40:18.684Z,16.29
2016-04-28T03:41:18.608Z,16.34
2016-04-28T03:42:19.550Z,16.29
2016-04-28T03:43:18.755Z,16.36
2016-04-28T03:44:18.492Z,16.36
2016-04-28T03:45:18.432Z,16.32
2016-04-28T03:46:21.389Z,16.29
2016-04-28T03:47:21.344Z,16.29
2016-04-28T03:48:18.284Z,16.28
2016-04-28T03:49:18.256Z,16.37
2016-04-28T03:50:18.399Z,16.32
2016-04-28T03:51:18.136Z,16.28
2016-04-28T03:52:18.091Z,16.31
2016-04-28T03:53:18.032Z,16.26
2016-04-28T03:54:17.988Z,16.29
2016-04-28T03:55:17.943Z,16.32
2016-04-28T03:56:18.165Z,16.28
2016-04-28T03:57:17.590Z,16.36
2016-04-28T03:58:17.812Z,16.31
2016-04-28T03:59:17.767Z,16.31
2016-04-28T04:00:17.738Z,16.31
2016-04-28T04:01:17.679Z,16.31
2016-04-28T04:02:17.619Z,16.37
2016-04-28T04:03:17.856Z,16.29
2016-04-28T04:04:17.531Z,16.32
2016-04-28T04:05:17.471Z,16.36
2016-04-28T04:06:20.458Z,16.25
2016-04-28T04:07:17.351Z,16.28
2016-04-28T04:08:17.338Z,16.29
2016-04-28T04:09:17.294Z,16.34
2016-04-28T04:10:17.219Z,16.32
2016-04-28T04:11:18.753Z,16.29
2016-04-28T04:12:17.442Z,16.36
2016-04-28T04:13:17.305Z,16.28
2016-04-28T04:14:17.042Z,16.32
2016-04-28T04:15:16.997Z,16.31
2016-04-28T04:16:16.953Z,16.34
2016-04-28T04:17:16.972Z,16.36
2016-04-28T04:18:19.834Z,16.31
2016-04-28T04:19:16.821Z,16.29
2016-04-28T04:20:16.729Z,16.34
2016-04-28T04:21:16.702Z,16.31
2016-04-28T04:22:16.657Z,16.34
2016-04-28T04:23:16.597Z,16.34
2016-04-28T04:24:16.568Z,16.25
2016-04-28T04:25:19.510Z,16.28
2016-04-28T04:26:19.418Z,16.31
2016-04-28T04:27:16.265Z,16.28
2016-04-28T04:28:16.954Z,16.28
2016-04-28T04:29:16.301Z,16.25
2016-04-28T04:30:16.257Z,16.26
2016-04-28T04:31:16.212Z,16.24
2016-04-28T04:32:16.199Z,16.26
2016-04-28T04:33:16.140Z,16.22
2016-04-28T04:34:16.064Z,16.32
2016-04-28T04:35:16.020Z,16.34
2016-04-28T04:36:16.163Z,16.29
2016-04-28T04:37:15.995Z,16.32
2016-04-28T04:38:15.856Z,16.26
2016-04-28T04:39:15.828Z,16.31
2016-04-28T04:40:16.003Z,16.29
2016-04-28T04:41:18.880Z,16.22
2016-04-28T04:42:16.195Z,16.22
2016-04-28T04:43:15.635Z,16.28
2016-04-28T04:44:15.606Z,16.32
2016-04-28T04:45:15.578Z,16.26
2016-04-28T04:46:18.503Z,16.31
2016-04-28T04:47:15.427Z,16.25
2016-04-28T04:48:18.696Z,16.25
2016-04-28T04:49:15.339Z,16.29
2016-04-28T04:50:15.294Z,16.25
2016-04-28T04:51:15.438Z,16.25
2016-04-28T04:52:15.207Z,16.26
2016-04-28T04:53:15.038Z,16.28
2016-04-28T04:54:14.977Z,16.26
2016-04-28T04:55:15.058Z,16.32
2016-04-28T04:56:16.749Z,16.28
2016-04-28T04:57:15.407Z,16.26
2016-04-28T04:58:14.926Z,16.25
2016-04-28T04:59:14.865Z,16.24
2016-04-28T05:00:14.838Z,16.26
2016-04-28T05:01:14.762Z,16.22
2016-04-28T05:02:14.734Z,16.31
2016-04-28T05:03:14.673Z,16.22
2016-04-28T05:04:14.645Z,16.28
2016-04-28T05:05:17.601Z,16.25
2016-04-28T05:06:14.540Z,16.25
2016-04-28T05:07:14.465Z,16.31
2016-04-28T05:08:14.437Z,16.25
2016-04-28T05:09:14.393Z,16.28
2016-04-28T05:10:14.333Z,16.24
2016-04-28T05:11:14.225Z,16.28
2016-04-28T05:12:14.556Z,16.22
2016-04-28T05:13:14.217Z,16.18
2016-04-28T05:14:14.141Z,16.24
2016-04-28T05:15:14.096Z,16.25
2016-04-28T05:16:14.037Z,16.26
2016-04-28T05:17:13.992Z,16.29
2016-04-28T05:18:13.948Z,16.22
2016-04-28T05:19:13.904Z,16.21
2016-04-28T05:20:13.861Z,16.25
2016-04-28T05:21:13.846Z,16.21
2016-04-28T05:22:13.756Z,16.25
2016-04-28T05:23:13.696Z,16.16
2016-04-28T05:24:13.651Z,16.22
2016-04-28T05:25:13.607Z,16.22
2016-04-28T05:26:14.392Z,16.18
2016-04-28T05:27:13.379Z,16.22
2016-04-28T05:28:13.459Z,16.26
2016-04-28T05:29:13.416Z,16.25
2016-04-28T05:30:13.402Z,16.25
2016-04-28T05:31:16.343Z,16.22
2016-04-28T05:32:19.329Z,16.18
2016-04-28T05:33:16.239Z,16.28
2016-04-28T05:34:13.178Z,16.26
2016-04-28T05:35:13.151Z,16.26
2016-04-28T05:36:13.106Z,16.22
2016-04-28T05:37:13.045Z,16.22
2016-04-28T05:38:13.189Z,16.21
2016-04-28T05:39:12.927Z,16.22
2016-04-28T05:40:12.882Z,16.21
2016-04-28T05:41:13.400Z,16.24
2016-04-28T05:42:13.762Z,16.22
2016-04-28T05:43:12.750Z,16.22
2016-04-28T05:44:12.690Z,16.17
2016-04-28T05:45:12.662Z,16.25
2016-04-28T05:46:18.648Z,16.21
2016-04-28T05:47:15.572Z,16.22
2016-04-28T05:48:12.514Z,16.24
2016-04-28T05:49:12.453Z,16.21
2016-04-28T05:50:12.425Z,16.21
2016-04-28T05:51:12.599Z,16.21
2016-04-28T05:52:12.306Z,16.18
2016-04-28T05:53:12.261Z,16.18
2016-04-28T05:54:12.233Z,16.29
2016-04-28T05:55:15.204Z,16.25
2016-04-28T05:56:12.144Z,16.18
2016-04-28T05:57:12.022Z,16.24
2016-04-28T05:58:12.040Z,16.31
2016-04-28T05:59:14.965Z,16.18
2016-04-28T06:00:14.921Z,16.21
2016-04-28T06:01:11.882Z,16.18
2016-04-28T06:02:11.879Z,16.26
2016-04-28T06:03:12.172Z,16.24
2016-04-28T06:04:11.856Z,16.18
2016-04-28T06:05:11.868Z,16.17
2016-04-28T06:06:11.829Z,16.13
2016-04-28T06:07:11.784Z,16.24
2016-04-28T06:08:11.786Z,16.21
2016-04-28T06:09:11.742Z,16.22
2016-04-28T06:10:11.695Z,16.21
2016-04-28T06:11:14.681Z,16.16
2016-04-28T06:12:11.954Z,16.26
2016-04-28T06:13:11.602Z,16.22
2016-04-28T06:14:11.859Z,16.25
2016-04-28T06:15:17.821Z,16.24
2016-04-28T06:16:11.437Z,16.31
2016-04-28T06:17:11.410Z,16.18
2016-04-28T06:18:11.383Z,16.24
2016-04-28T06:19:11.341Z,16.17
2016-04-28T06:20:14.268Z,16.22
2016-04-28T06:21:11.225Z,16.25
2016-04-28T06:22:11.167Z,16.22
2016-04-28T06:23:11.420Z,16.18
2016-04-28T06:24:14.095Z,16.16
2016-04-28T06:25:11.567Z,16.18
2016-04-28T06:26:10.978Z,16.22
2016-04-28T06:27:11.761Z,16.17
2016-04-28T06:28:10.874Z,16.22
2016-04-28T06:29:10.876Z,16.18
2016-04-28T06:30:13.818Z,16.13
2016-04-28T06:31:10.758Z,16.24
2016-04-28T06:32:13.698Z,16.12
2016-04-28T06:33:10.655Z,16.22
2016-04-28T06:34:13.594Z,16.21
2016-04-28T06:35:10.535Z,16.25
2016-04-28T06:36:10.507Z,16.18
2016-04-28T06:37:13.665Z,16.22
2016-04-28T06:38:13.401Z,16.18
2016-04-28T06:39:13.201Z,16.21
2016-04-28T06:40:13.329Z,16.13
2016-04-28T06:41:10.254Z,16.21
2016-04-28T06:42:10.850Z,16.21
2016-04-28T06:43:10.150Z,16.17
2016-04-28T06:44:10.121Z,16.18
2016-04-28T06:45:10.280Z,16.21
2016-04-28T06:46:10.111Z,16.25
2016-04-28T06:47:09.958Z,16.21
2016-04-28T06:48:09.914Z,16.24
2016-04-28T06:49:09.884Z,16.24
2016-04-28T06:50:09.809Z,16.22
2016-04-28T06:51:09.796Z,16.18
2016-04-28T06:52:09.737Z,16.13
2016-04-28T06:53:09.895Z,16.21
2016-04-28T06:54:09.633Z,16.22
2016-04-28T06:55:09.588Z,16.13
2016-04-28T06:56:09.544Z,16.12
2016-04-28T06:57:09.563Z,16.16
2016-04-28T06:58:09.455Z,16.16
2016-04-28T06:59:09.443Z,16.16
2016-04-28T07:00:09.351Z,16.13
2016-04-28T07:01:09.323Z,16.18
2016-04-28T07:02:09.264Z,16.24
2016-04-28T07:03:09.063Z,16.25
2016-04-28T07:04:09.174Z,16.18
2016-04-28T07:05:12.116Z,16.22
2016-04-28T07:06:12.055Z,16.18
2016-04-28T07:07:09.229Z,16.18
2016-04-28T07:08:09.170Z,16.17
2016-04-28T07:09:09.313Z,16.22
2016-04-28T07:10:08.894Z,16.17
2016-04-28T07:11:11.819Z,16.12
2016-04-28T07:12:09.775Z,16.21
2016-04-28T07:13:08.762Z,16.21
2016-04-28T07:14:11.890Z,16.13
2016-04-28T07:15:07.923Z,16.12
2016-04-28T07:16:08.911Z,16.22
2016-04-28T07:17:11.553Z,16.21
2016-04-28T07:18:08.494Z,16.17
2016-04-28T07:19:14.700Z,16.18
2016-04-28T07:20:11.452Z,16.17
2016-04-28T07:21:08.345Z,16.16
2016-04-28T07:22:08.286Z,16.18
2016-04-28T07:23:08.243Z,16.24
2016-04-28T07:24:08.324Z,16.22
2016-04-28T07:25:11.357Z,16.17
2016-04-28T07:26:08.095Z,16.26
2016-04-28T07:27:09.176Z,16.24
2016-04-28T07:28:11.006Z,16.24
2016-04-28T07:29:08.039Z,16.18
2016-04-28T07:30:07.886Z,16.21
2016-04-28T07:31:10.905Z,16.16
2016-04-28T07:32:07.814Z,16.21
2016-04-28T07:33:10.817Z,16.25
2016-04-28T07:34:08.117Z,16.17
2016-04-28T07:35:07.697Z,16.16
2016-04-28T07:36:07.622Z,16.17
2016-04-28T07:37:07.577Z,16.18
2016-04-28T07:38:07.517Z,16.18
2016-04-28T07:39:07.488Z,16.21
2016-04-28T07:40:07.413Z,16.21
2016-04-28T07:41:07.979Z,16.18
2016-04-28T07:42:09.435Z,16.12
2016-04-28T07:43:08.109Z,16.13
2016-04-28T07:44:12.955Z,16.12
2016-04-28T07:45:07.021Z,16.16
2016-04-28T07:46:07.227Z,16.13
2016-04-28T07:47:07.105Z,16.26
2016-04-28T07:48:07.029Z,16.17
2016-04-28T07:49:07.015Z,16.25
2016-04-28T07:50:06.971Z,16.21
2016-04-28T07:51:06.881Z,16.12
2016-04-28T07:52:06.898Z,16.18
2016-04-28T07:53:06.792Z,16.06
2016-04-28T07:54:10.014Z,16.12
2016-04-28T07:55:06.735Z,16.18
2016-04-28T07:56:16.035Z,16.22
2016-04-28T07:57:06.851Z,16.16
2016-04-28T07:58:07.150Z,16.1
2016-04-28T07:59:06.512Z,16.17
2016-04-28T08:00:06.358Z,16.22
2016-04-28T08:01:09.486Z,16.16
2016-04-28T08:02:06.379Z,16.13
2016-04-28T08:03:06.413Z,16.12
2016-04-28T08:04:06.306Z,16.21
2016-04-28T08:05:06.293Z,16.13
2016-04-28T08:06:06.858Z,16.22
2016-04-28T08:07:06.095Z,16.24
2016-04-28T08:08:06.063Z,16.17
2016-04-28T08:09:09.050Z,16.18
2016-04-28T08:10:05.974Z,16.17
2016-04-28T08:11:05.931Z,16.17
2016-04-28T08:12:08.979Z,16.25
2016-04-28T08:13:05.842Z,16.12
2016-04-28T08:14:08.813Z,16.22
2016-04-28T08:15:05.707Z,16.17
2016-04-28T08:16:08.678Z,16.17
2016-04-28T08:17:05.650Z,16.21
2016-04-28T08:18:08.715Z,16.18
2016-04-28T08:19:05.531Z,16.18
2016-04-28T08:20:05.673Z,16.17
2016-04-28T08:21:05.472Z,16.12
2016-04-28T08:22:05.413Z,16.18
2016-04-28T08:23:05.353Z,16.09
2016-04-28T08:24:05.387Z,16.13
2016-04-28T08:25:08.280Z,16.16
2016-04-28T08:26:05.517Z,16.1
2016-04-28T08:27:05.192Z,16.16
2016-04-28T08:28:10.789Z,16.21
2016-04-28T08:29:05.105Z,16.12
2016-04-28T08:30:05.153Z,16.21
2016-04-28T08:31:04.953Z,16.09
2016-04-28T08:32:04.924Z,16.1
2016-04-28T08:33:05.005Z,16.22
2016-04-28T08:34:04.836Z,16.18
2016-04-28T08:35:05.073Z,16.16
2016-04-28T08:36:04.935Z,16.17
2016-04-28T08:37:04.672Z,16.12
2016-04-28T08:38:04.612Z,16.16
2016-04-28T08:39:04.631Z,16.1
2016-04-28T08:40:04.539Z,16.21
2016-04-28T08:41:07.465Z,16.21
2016-04-28T08:42:04.327Z,16.16
2016-04-28T08:43:04.235Z,16.17
2016-04-28T08:44:04.348Z,16.16
2016-04-28T08:45:04.303Z,16.16
2016-04-28T08:46:04.259Z,16.16
2016-04-28T08:47:07.356Z,16.24
2016-04-28T08:48:04.139Z,16.18
2016-04-28T08:49:04.173Z,16.1
2016-04-28T08:50:04.082Z,16.12
2016-04-28T08:51:03.992Z,16.1
2016-04-28T08:52:04.025Z,16.17
2016-04-28T08:53:04.090Z,16.21
2016-04-28T08:54:03.952Z,16.09
2016-04-28T08:55:06.861Z,16.17
2016-04-28T08:56:06.786Z,16.21
2016-04-28T08:57:06.617Z,16.17
2016-04-28T08:58:07.197Z,16.16
2016-04-28T08:59:06.747Z,16.13
2016-04-28T09:00:03.640Z,16.09
2016-04-28T09:01:05.158Z,16.09
2016-04-28T09:02:03.505Z,16.12
2016-04-28T09:03:03.414Z,16.16
2016-04-28T09:04:06.855Z,16.18
2016-04-28T09:05:03.326Z,16.13
2016-04-28T09:06:03.297Z,16.12
2016-04-28T09:07:03.644Z,16.16
2016-04-28T09:08:04.037Z,16.09
2016-04-28T09:09:03.227Z,16.13
2016-04-28T09:10:02.979Z,16.1
2016-04-28T09:11:03.279Z,16.18
2016-04-28T09:12:02.985Z,16.12
2016-04-28T09:13:02.988Z,16.12
2016-04-28T09:14:02.757Z,16.17
2016-04-28T09:15:03.103Z,16.17
2016-04-28T09:16:05.809Z,16.08
2016-04-28T09:17:02.951Z,16.06
2016-04-28T09:18:05.704Z,16.16
2016-04-28T09:19:02.723Z,16.13
2016-04-28T09:20:02.600Z,16.12
2016-04-28T09:21:02.634Z,16.18
2016-04-28T09:22:02.559Z,16.09
2016-04-28T09:23:02.452Z,16.12
2016-04-28T09:24:05.502Z,16.1
2016-04-28T09:25:02.380Z,16.09
2016-04-28T09:26:02.414Z,16.1
2016-04-28T09:27:02.103Z,16.12
2016-04-28T09:28:01.997Z,16.1
2016-04-28T09:29:02.186Z,16.16
2016-04-28T09:30:02.143Z,16.12
2016-04-28T09:31:02.051Z,16.1
2016-04-28T09:32:02.288Z,16.22
2016-04-28T09:33:05.011Z,16.16
2016-04-28T09:34:02.169Z,16.13
2016-04-28T09:35:01.906Z,16.12
2016-04-28T09:36:01.799Z,16.17
2016-04-28T09:37:04.771Z,16.12
2016-04-28T09:38:07.930Z,16.12
2016-04-28T09:39:01.667Z,16.13
2016-04-28T09:40:04.623Z,16.12
2016-04-28T09:41:01.703Z,16.12
2016-04-28T09:42:06.362Z,16.13
2016-04-28T09:43:02.069Z,16.06
2016-04-28T09:44:01.446Z,16.1
2016-04-28T09:45:04.387Z,16.08
2016-04-28T09:46:04.357Z,16.13
2016-04-28T09:47:02.579Z,16.1
2016-04-28T09:48:01.269Z,16.13
2016-04-28T09:49:01.334Z,16.1
2016-04-28T09:50:04.462Z,16.08
2016-04-28T09:51:01.668Z,16.17
2016-04-28T09:52:01.077Z,16.1
2016-04-28T09:53:02.283Z,16.16
2016-04-28T09:54:03.989Z,16.12
2016-04-28T09:55:00.913Z,16.21
2016-04-28T09:56:00.869Z,16.12
2016-04-28T09:57:00.902Z,16.13
2016-04-28T09:58:04.296Z,16.12
2016-04-28T09:59:00.721Z,16.13
2016-04-28T10:00:00.802Z,16.12
2016-04-28T10:01:00.695Z,16.21
2016-04-28T10:02:00.557Z,16.18
2016-04-28T10:03:00.560Z,16.09
2016-04-28T10:04:00.500Z,16.16
2016-04-28T10:05:03.440Z,16.12
2016-04-28T10:06:00.646Z,16.09
2016-04-28T10:07:00.336Z,16.17
2016-04-28T10:08:00.339Z,16.13
2016-04-28T10:09:00.467Z,16.1
2016-04-28T10:10:00.469Z,16.13
2016-04-28T10:11:00.191Z,16.12
2016-04-28T10:12:00.257Z,16.09
2016-04-28T10:13:03.258Z,16.1
2016-04-28T10:14:00.042Z,16.08
2016-04-28T10:14:59.952Z,16.17
2016-04-28T10:15:59.954Z,16.16
2016-04-28T10:16:59.831Z,16.17
2016-04-28T10:17:59.803Z,16.1
2016-04-28T10:18:59.790Z,16.1
2016-04-28T10:19:59.683Z,16.16
2016-04-28T10:20:59.640Z,16.12
2016-04-28T10:21:59.595Z,16.1
2016-04-28T10:23:00.645Z,16.17
2016-04-28T10:24:02.553Z,16.16
2016-04-28T10:25:02.604Z,16.09
2016-04-28T10:25:59.403Z,16.09
2016-04-28T10:27:02.406Z,16.13
2016-04-28T10:28:00.111Z,16.13
2016-04-28T10:28:59.270Z,16.12
2016-04-28T10:29:59.226Z,16.08
2016-04-28T10:30:59.244Z,16.13
2016-04-28T10:32:02.153Z,16.1
2016-04-28T10:32:59.094Z,16.06
2016-04-28T10:33:59.033Z,16.13
2016-04-28T10:34:58.974Z,16.06
2016-04-28T10:35:58.930Z,16.05
2016-04-28T10:36:58.917Z,16.02
2016-04-28T10:37:58.936Z,16.09
2016-04-28T10:38:58.781Z,16.08
2016-04-28T10:39:58.799Z,16.13
2016-04-28T10:41:04.709Z,16.02
2016-04-28T10:42:01.805Z,16.09
2016-04-28T10:42:58.573Z,16.1
2016-04-28T10:44:01.623Z,16.03
2016-04-28T10:44:58.501Z,16.08
2016-04-28T10:45:58.441Z,16.02
2016-04-28T10:46:58.491Z,16.09
2016-04-28T10:47:58.868Z,16.06
2016-04-28T10:48:58.590Z,16.13
2016-04-28T10:49:58.265Z,16.12
2016-04-28T10:51:01.236Z,16.1
2016-04-28T10:52:01.145Z,16.06
2016-04-28T10:52:58.131Z,16.09
2016-04-28T10:54:01.087Z,16.12
2016-04-28T10:54:58.059Z,16.09
2016-04-28T10:55:58.390Z,16.13
2016-04-28T10:56:57.923Z,16.08
2016-04-28T10:57:57.864Z,16.13
2016-04-28T10:58:57.836Z,16.13
2016-04-28T10:59:57.775Z,16.1
2016-04-28T11:00:57.716Z,16.02
2016-04-28T11:01:57.719Z,16.06
2016-04-28T11:02:57.644Z,16.13
2016-04-28T11:03:57.786Z,16.09
2016-04-28T11:04:57.633Z,16.1
2016-04-28T11:06:00.588Z,16.12
2016-04-28T11:06:59.888Z,16.08
2016-04-28T11:08:00.422Z,16.06
2016-04-28T11:08:57.393Z,16.1
2016-04-28T11:09:57.287Z,16.13
2016-04-28T11:10:57.211Z,16.05
2016-04-28T11:12:00.105Z,16.09
2016-04-28T11:12:59.295Z,16.08
2016-04-28T11:13:57.173Z,16.03
2016-04-28T11:14:57.238Z,16.03
2016-04-28T11:15:57.021Z,16.05
2016-04-28T11:16:56.977Z,16
2016-04-28T11:17:59.965Z,16.08
2016-04-28T11:18:56.842Z,16.09
2016-04-28T11:19:56.829Z,15.99
2016-04-28T11:20:56.763Z,16.09
2016-04-28T11:21:56.720Z,16.13
2016-04-28T11:22:56.692Z,16.09
2016-04-28T11:23:56.600Z,16.09
2016-04-28T11:24:56.978Z,16.13
2016-04-28T11:25:56.496Z,16.02
2016-04-28T11:26:56.530Z,16.06
2016-04-28T11:27:56.580Z,16.03
2016-04-28T11:28:56.410Z,16.08
2016-04-28T11:29:56.319Z,16.09
2016-04-28T11:30:56.290Z,16.03
2016-04-28T11:31:56.200Z,16.08
2016-04-28T11:32:57.062Z,16.1
2016-04-28T11:33:56.268Z,16.06
2016-04-28T11:34:56.332Z,16.06
2016-04-28T11:35:56.038Z,16.06
2016-04-28T11:36:55.978Z,16.1
2016-04-28T11:37:55.934Z,16.13
2016-04-28T11:38:55.890Z,16.05
2016-04-28T11:39:55.830Z,16.09
2016-04-28T11:40:55.802Z,16.09
2016-04-28T11:41:56.476Z,16.05
2016-04-28T11:42:55.620Z,16.16
2016-04-28T11:43:55.732Z,16.12
2016-04-28T11:44:55.610Z,16.13
2016-04-28T11:45:55.596Z,16.1
2016-04-28T11:46:55.599Z,16.1
2016-04-28T11:47:55.524Z,16.03
2016-04-28T11:48:55.464Z,16.03
2016-04-28T11:49:55.545Z,16.09
2016-04-28T11:50:55.704Z,16.03
2016-04-28T11:51:55.379Z,16.13
2016-04-28T11:52:58.209Z,16.12
2016-04-28T11:53:55.164Z,16.06
2016-04-28T11:54:55.120Z,16.06
2016-04-28T11:55:55.045Z,16.08
2016-04-28T11:56:55.048Z,16.12
2016-04-28T11:57:56.020Z,16.1
2016-04-28T11:58:54.928Z,16.09
2016-04-28T11:59:55.134Z,16.1
2016-04-28T12:00:54.825Z,16.09
2016-04-28T12:01:54.952Z,16.12
2016-04-28T12:02:54.767Z,16.1
2016-04-28T12:03:54.707Z,16.13
2016-04-28T12:04:54.835Z,16.03
2016-04-28T12:05:55.072Z,16.09
2016-04-28T12:06:54.669Z,16.09
2016-04-28T12:07:54.812Z,16.13
2016-04-28T12:08:54.768Z,16.08
2016-04-28T12:09:54.692Z,16.12
2016-04-28T12:10:54.335Z,16.17
2016-04-28T12:11:54.916Z,16.13
2016-04-28T12:12:54.060Z,16.09
2016-04-28T12:13:54.187Z,16.16
2016-04-28T12:14:54.128Z,16.16
2016-04-28T12:15:54.099Z,16.09
2016-04-28T12:16:54.055Z,16.13
2016-04-28T12:17:54.011Z,16.12
2016-04-28T12:18:54.029Z,16.05
2016-04-28T12:19:54.220Z,16.09
2016-04-28T12:20:53.879Z,16.08
2016-04-28T12:21:54.037Z,16.16
2016-04-28T12:22:53.759Z,16.13
2016-04-28T12:23:53.855Z,16.1
2016-04-28T12:24:53.670Z,16.13
2016-04-28T12:25:53.672Z,16.13
2016-04-28T12:26:53.628Z,16.09
2016-04-28T12:27:53.459Z,16.05
2016-04-28T12:28:53.494Z,16.03
2016-04-28T12:29:53.434Z,16.06
2016-04-28T12:30:53.483Z,16.12
2016-04-28T12:31:53.408Z,16.12
2016-04-28T12:32:53.302Z,16.08
2016-04-28T12:33:53.226Z,16.08
2016-04-28T12:34:53.352Z,16.09
2016-04-28T12:35:53.387Z,16.12
2016-04-28T12:36:53.124Z,16.08
2016-04-28T12:37:53.080Z,16.08
2016-04-28T12:38:53.114Z,16.1
2016-04-28T12:39:52.961Z,16.1
2016-04-28T12:40:53.088Z,16.09
2016-04-28T12:41:52.982Z,16.17
2016-04-28T12:42:53.719Z,16.1
2016-04-28T12:43:52.753Z,16.09
2016-04-28T12:44:55.723Z,16.18
2016-04-28T12:45:52.648Z,16.1
2016-04-28T12:46:52.604Z,16.09
2016-04-28T12:47:52.557Z,16.06
2016-04-28T12:48:52.513Z,16.09
2016-04-28T12:49:52.531Z,16.1
2016-04-28T12:50:52.393Z,16.09
2016-04-28T12:51:52.365Z,16.13
2016-04-28T12:52:53.136Z,16.17
2016-04-28T12:53:52.292Z,16.08